Time;durP1;ratioP1;P1;durP2;ratioP2;P2;SDS_P1;SDS_P2;PMS_P1;PMS_P2;Temp;Humidity;BMP_temperature;BMP_pressure;BME280_temperature;BME280_humidity;BME280_pressure;Samples;Min_cycle;Max_cycle;Signal;HPM_P1;HPM_P2
2023/07/23 00:00:24;;;;;;;0.90;0.70;;;;;;;;;;5115863;27;20099;-86
2023/07/23 00:02:49;;;;;;;1.40;0.85;;;;;;;;;;5129922;27;20027;-86
2023/07/23 00:05:15;;;;;;;1.85;0.98;;;;;;;;;;5135328;27;20027;-86
2023/07/23 00:07:42;;;;;;;6.32;1.65;;;;;;;;;;5116645;27;20026;-86
2023/07/23 00:10:11;;;;;;;1.65;0.95;;;;;;;;;;5132966;27;20470;-88
2023/07/23 00:12:37;;;;;;;3.80;1.38;;;;;;;;;;5128739;27;20023;-85
2023/07/23 00:15:04;;;;;;;1.38;0.63;;;;;;;;;;5115698;27;20374;-85
2023/07/23 00:17:29;;;;;;;4.65;1.00;;;;;;;;;;5120854;27;20391;-84
2023/07/23 00:19:55;;;;;;;1.13;0.88;;;;;;;;;;5133950;27;20023;-85
2023/07/23 00:22:20;;;;;;;1.35;1.25;;;;;;;;;;5131813;27;20032;-84
2023/07/23 00:24:46;;;;;;;2.03;1.00;;;;;;;;;;5134763;27;20023;-84
2023/07/23 00:27:13;;;;;;;1.60;1.10;;;;;;;;;;5134018;27;20074;-85
2023/07/23 00:29:40;;;;;;;2.60;1.65;;;;;;;;;;5134158;27;20037;-85
2023/07/23 00:32:06;;;;;;;6.65;1.52;;;;;;;;;;5132156;27;20015;-85
2023/07/23 00:34:31;;;;;;;3.90;1.88;;;;;;;;;;5113515;27;20129;-84
2023/07/23 00:36:57;;;;;;;1.17;0.90;;;;;;;;;;5134175;27;20019;-85
2023/07/23 00:39:22;;;;;;;1.05;0.85;;;;;;;;;;5134440;27;20031;-85
2023/07/23 00:41:49;;;;;;;2.13;1.27;;;;;;;;;;5111162;27;20020;-86
2023/07/23 00:44:16;;;;;;;1.10;1.00;;;;;;;;;;5130709;27;20103;-87
2023/07/23 00:46:43;;;;;;;2.03;1.10;;;;;;;;;;5135510;27;20047;-87
2023/07/23 00:49:09;;;;;;;1.38;0.93;;;;;;;;;;5113857;27;20394;-89
2023/07/23 00:51:35;;;;;;;2.20;1.20;;;;;;;;;;5111509;27;20075;-89
2023/07/23 00:54:01;;;;;;;1.67;1.20;;;;;;;;;;5114092;27;20023;-87
2023/07/23 00:56:27;;;;;;;1.95;1.38;;;;;;;;;;5118138;27;20023;-88
2023/07/23 00:58:53;;;;;;;1.65;1.05;;;;;;;;;;5131744;27;20027;-89
2023/07/23 01:01:19;;;;;;;1.65;1.15;;;;;;;;;;5132243;27;20026;-89
2023/07/23 01:03:45;;;;;;;0.88;0.73;;;;;;;;;;5113613;27;20027;-86
2023/07/23 01:06:11;;;;;;;5.57;1.17;;;;;;;;;;5130526;27;20023;-85
2023/07/23 01:08:39;;;;;;;1.20;1.10;;;;;;;;;;5113822;27;20058;-85
2023/07/23 01:11:05;;;;;;;2.20;1.73;;;;;;;;;;5129608;27;20058;-86
2023/07/23 01:13:31;;;;;;;1.45;1.13;;;;;;;;;;5113899;27;20035;-87
2023/07/23 01:15:56;;;;;;;2.08;1.35;;;;;;;;;;5132395;27;20463;-87
2023/07/23 01:18:23;;;;;;;3.17;1.05;;;;;;;;;;5132291;27;20030;-86
2023/07/23 01:20:49;;;;;;;1.60;1.15;;;;;;;;;;5113119;27;20034;-86
2023/07/23 01:23:14;;;;;;;2.58;1.45;;;;;;;;;;5112674;27;20391;-86
2023/07/23 01:25:40;;;;;;;4.03;1.27;;;;;;;;;;5113571;27;20019;-86
2023/07/23 01:28:07;;;;;;;2.30;1.08;;;;;;;;;;5125772;27;20471;-87
2023/07/23 01:30:32;;;;;;;1.83;1.23;;;;;;;;;;5132214;27;20023;-86
2023/07/23 01:32:59;;;;;;;1.48;1.00;;;;;;;;;;5127826;27;20102;-86
2023/07/23 01:35:24;;;;;;;5.05;2.33;;;;;;;;;;5132055;27;20063;-86
2023/07/23 01:37:51;;;;;;;4.60;1.27;;;;;;;;;;5131727;27;20110;-87
2023/07/23 01:40:16;;;;;;;0.50;0.50;;;;;;;;;;5128474;27;20023;-86
2023/07/23 01:42:45;;;;;;;7.57;1.40;;;;;;;;;;5112998;27;20025;-87
2023/07/23 01:45:12;;;;;;;1.13;0.80;;;;;;;;;;5111048;27;20054;-87
2023/07/23 01:47:38;;;;;;;1.98;0.85;;;;;;;;;;5113183;27;20478;-87
2023/07/23 01:50:04;;;;;;;2.70;1.70;;;;;;;;;;5131814;27;20033;-87
2023/07/23 01:52:29;;;;;;;0.38;0.38;;;;;;;;;;5131508;27;20031;-86
2023/07/23 01:54:55;;;;;;;2.40;1.50;;;;;;;;;;5130810;27;20027;-88
2023/07/23 01:57:20;;;;;;;2.15;1.48;;;;;;;;;;5113363;27;20083;-88
2023/07/23 01:59:47;;;;;;;2.70;1.23;;;;;;;;;;5114221;27;20079;-89
2023/07/23 02:02:13;;;;;;;5.30;1.90;;;;;;;;;;5126282;27;20413;-88
2023/07/23 02:04:38;;;;;;;1.55;1.45;;;;;;;;;;5113564;28;20019;-89
2023/07/23 02:07:04;;;;;;;1.80;1.20;;;;;;;;;;5112988;27;20031;-89
2023/07/23 02:09:29;;;;;;;6.85;1.75;;;;;;;;;;5128746;27;20114;-88
2023/07/23 02:11:55;;;;;;;6.45;0.82;;;;;;;;;;5129558;27;20011;-87
2023/07/23 02:14:20;;;;;;;6.43;1.25;;;;;;;;;;5131983;27;20034;-88
2023/07/23 02:16:45;;;;;;;1.65;1.55;;;;;;;;;;5110770;27;20037;-87
2023/07/23 02:19:12;;;;;;;2.28;0.88;;;;;;;;;;5111467;28;20025;-84
2023/07/23 02:21:38;;;;;;;1.05;0.70;;;;;;;;;;5131047;27;20479;-84
2023/07/23 02:24:05;;;;;;;1.80;1.55;;;;;;;;;;5131383;27;20118;-83
2023/07/23 02:26:30;;;;;;;3.53;1.40;;;;;;;;;;5131136;27;20033;-87
2023/07/23 02:28:56;;;;;;;2.10;0.88;;;;;;;;;;5130689;28;20110;-86
2023/07/23 02:31:21;;;;;;;2.38;1.83;;;;;;;;;;5130409;28;20030;-86
2023/07/23 02:33:47;;;;;;;7.72;1.58;;;;;;;;;;5129659;28;20023;-86
2023/07/23 02:36:12;;;;;;;3.03;1.40;;;;;;;;;;5130255;27;20023;-88
2023/07/23 02:38:37;;;;;;;2.13;0.82;;;;;;;;;;5131474;28;20035;-87
2023/07/23 02:41:03;;;;;;;5.82;2.00;;;;;;;;;;5130897;28;20076;-86
2023/07/23 02:43:29;;;;;;;1.27;1.05;;;;;;;;;;5131802;28;20031;-85
2023/07/23 02:45:54;;;;;;;3.25;1.27;;;;;;;;;;5126530;28;20066;-86
2023/07/23 02:48:20;;;;;;;3.97;1.55;;;;;;;;;;5131318;28;20425;-89
2023/07/23 02:50:45;;;;;;;1.27;0.93;;;;;;;;;;5127420;28;20393;-83
2023/07/23 02:53:11;;;;;;;0.98;0.90;;;;;;;;;;5130031;27;20090;-85
2023/07/23 02:55:36;;;;;;;2.60;1.58;;;;;;;;;;5126253;28;20408;-85
2023/07/23 02:58:03;;;;;;;3.45;2.20;;;;;;;;;;5131535;28;20023;-85
2023/07/23 03:00:30;;;;;;;1.83;1.40;;;;;;;;;;5130875;28;20034;-90
2023/07/23 03:02:55;;;;;;;3.25;1.77;;;;;;;;;;5130498;28;20368;-85
2023/07/23 03:05:23;;;;;;;5.18;1.60;;;;;;;;;;5130957;27;20027;-84
2023/07/23 03:07:48;;;;;;;1.77;1.38;;;;;;;;;;5131874;27;20034;-85
2023/07/23 03:10:13;;;;;;;3.92;2.00;;;;;;;;;;5132252;27;20023;-87
2023/07/23 03:12:39;;;;;;;3.58;2.55;;;;;;;;;;5135105;27;20027;-83
2023/07/23 03:15:05;;;;;;;3.00;1.90;;;;;;;;;;5116214;27;20019;-84
2023/07/23 03:17:31;;;;;;;2.05;1.77;;;;;;;;;;5135022;27;20368;-85
2023/07/23 03:19:57;;;;;;;2.72;1.85;;;;;;;;;;5133750;27;20064;-86
2023/07/23 03:22:23;;;;;;;1.77;1.58;;;;;;;;;;5134688;27;20489;-86
2023/07/23 03:24:48;;;;;;;4.10;2.40;;;;;;;;;;5128056;27;20023;-85
2023/07/23 03:27:14;;;;;;;2.60;1.83;;;;;;;;;;5113546;27;20023;-82
2023/07/23 03:29:39;;;;;;;5.53;2.42;;;;;;;;;;5134169;27;20042;-85
2023/07/23 03:32:05;;;;;;;3.88;1.30;;;;;;;;;;5116314;27;20030;-85
2023/07/23 03:34:31;;;;;;;1.63;1.38;;;;;;;;;;5135198;27;20027;-86
2023/07/23 03:36:56;;;;;;;3.42;1.88;;;;;;;;;;5134461;27;20320;-85
2023/07/23 03:39:22;;;;;;;4.15;1.77;;;;;;;;;;5132754;27;20031;-87
2023/07/23 03:41:47;;;;;;;2.45;1.63;;;;;;;;;;5131772;27;20031;-86
2023/07/23 03:44:13;;;;;;;1.70;1.35;;;;;;;;;;5133880;27;20458;-83
2023/07/23 03:46:44;;;;;;;1.67;1.58;;;;;;;;;;5134179;27;20486;-83
2023/07/23 03:49:11;;;;;;;1.80;1.30;;;;;;;;;;5115100;27;20027;-84
2023/07/23 03:51:36;;;;;;;3.22;1.75;;;;;;;;;;5134213;27;20030;-82
2023/07/23 03:54:02;;;;;;;1.33;1.23;;;;;;;;;;5133877;27;20023;-85
2023/07/23 03:56:27;;;;;;;1.70;1.33;;;;;;;;;;5134050;27;20118;-84
2023/07/23 03:58:53;;;;;;;1.92;1.35;;;;;;;;;;5129971;27;20046;-85
2023/07/23 04:01:18;;;;;;;1.98;1.60;;;;;;;;;;5124599;27;20030;-84
2023/07/23 04:03:44;;;;;;;2.28;1.80;;;;;;;;;;5114830;27;20485;-84
2023/07/23 04:06:10;;;;;;;7.82;1.33;;;;;;;;;;5134129;27;20627;-87
2023/07/23 04:08:35;;;;;;;2.22;1.70;;;;;;;;;;5133681;27;20126;-86
2023/07/23 04:11:00;;;;;;;1.30;0.90;;;;;;;;;;5129745;27;20114;-85
2023/07/23 04:13:26;;;;;;;1.70;1.05;;;;;;;;;;5133024;27;20102;-86
2023/07/23 04:15:51;;;;;;;1.55;1.30;;;;;;;;;;5128305;27;20098;-86
2023/07/23 04:18:18;;;;;;;1.35;0.95;;;;;;;;;;5115235;27;20382;-84
2023/07/23 04:20:44;;;;;;;1.05;0.80;;;;;;;;;;5134142;27;20094;-83
2023/07/23 04:23:09;;;;;;;1.63;1.10;;;;;;;;;;5114870;27;20193;-87
2023/07/23 04:25:35;;;;;;;2.22;1.27;;;;;;;;;;5128583;27;20478;-84
2023/07/23 04:28:00;;;;;;;2.47;1.35;;;;;;;;;;5115333;27;20061;-85
2023/07/23 04:30:27;;;;;;;2.90;1.17;;;;;;;;;;5132904;27;20038;-86
2023/07/23 04:32:53;;;;;;;1.63;1.15;;;;;;;;;;5138884;27;20069;-85
2023/07/23 04:35:20;;;;;;;1.50;0.98;;;;;;;;;;5133743;27;20039;-84
2023/07/23 04:37:46;;;;;;;0.98;0.60;;;;;;;;;;5115148;27;20031;-85
2023/07/23 04:40:11;;;;;;;1.40;0.77;;;;;;;;;;5131962;27;20110;-85
2023/07/23 04:42:37;;;;;;;0.93;0.60;;;;;;;;;;5113878;27;20031;-83
2023/07/23 04:45:03;;;;;;;0.77;0.45;;;;;;;;;;5132906;27;20551;-84
2023/07/23 04:47:28;;;;;;;1.17;0.88;;;;;;;;;;5128167;27;20027;-88
2023/07/23 04:49:54;;;;;;;1.40;0.80;;;;;;;;;;5132400;27;20349;-84
2023/07/23 04:52:19;;;;;;;2.13;1.10;;;;;;;;;;5131731;27;20023;-86
2023/07/23 04:54:45;;;;;;;1.20;0.77;;;;;;;;;;5128345;27;20058;-83
2023/07/23 04:57:10;;;;;;;2.40;1.27;;;;;;;;;;5112482;27;20023;-85
2023/07/23 04:59:36;;;;;;;2.05;1.27;;;;;;;;;;5129249;27;20037;-85
2023/07/23 05:02:02;;;;;;;0.52;0.52;;;;;;;;;;5132151;27;20512;-86
2023/07/23 05:04:27;;;;;;;1.17;0.80;;;;;;;;;;5112387;27;20023;-85
2023/07/23 05:06:53;;;;;;;0.73;0.70;;;;;;;;;;5128478;27;20462;-86
2023/07/23 05:09:18;;;;;;;1.30;0.77;;;;;;;;;;5114326;27;20042;-86
2023/07/23 05:11:44;;;;;;;1.58;0.75;;;;;;;;;;5129616;27;20019;-83
2023/07/23 05:14:10;;;;;;;3.80;1.05;;;;;;;;;;5130665;27;20383;-82
2023/07/23 05:16:36;;;;;;;1.70;1.00;;;;;;;;;;5132667;27;20106;-85
2023/07/23 05:19:01;;;;;;;2.92;1.15;;;;;;;;;;5132299;27;20055;-86
2023/07/23 05:21:27;;;;;;;1.58;1.08;;;;;;;;;;5129204;27;20050;-83
2023/07/23 05:23:52;;;;;;;2.08;1.23;;;;;;;;;;5132163;27;20467;-83
2023/07/23 05:26:18;;;;;;;1.98;1.30;;;;;;;;;;5131601;27;20023;-84
2023/07/23 05:28:43;;;;;;;1.85;1.25;;;;;;;;;;5126862;27;20440;-82
2023/07/23 05:31:09;;;;;;;2.40;1.08;;;;;;;;;;5131791;27;20029;-83
2023/07/23 05:33:34;;;;;;;1.60;1.08;;;;;;;;;;5113274;27;20053;-83
2023/07/23 05:36:01;;;;;;;1.33;0.65;;;;;;;;;;5113984;27;20031;-81
2023/07/23 05:38:26;;;;;;;0.40;0.40;;;;;;;;;;5129277;27;20109;-82
2023/07/23 05:40:57;;;;;;;0.55;0.40;;;;;;;;;;5113733;27;20126;-86
2023/07/23 05:43:22;;;;;;;1.08;0.68;;;;;;;;;;5113122;27;20034;-84
2023/07/23 05:45:47;;;;;;;0.77;0.57;;;;;;;;;;5111561;27;20047;-84
2023/07/23 05:48:13;;;;;;;0.73;0.47;;;;;;;;;;5113025;27;20378;-84
2023/07/23 05:50:38;;;;;;;0.98;0.63;;;;;;;;;;5127716;27;20034;-83
2023/07/23 05:53:04;;;;;;;0.68;0.65;;;;;;;;;;5110179;27;20375;-85
2023/07/23 05:55:29;;;;;;;0.52;0.52;;;;;;;;;;5126910;27;20107;-86
2023/07/23 05:57:55;;;;;;;1.10;0.95;;;;;;;;;;5113050;27;20027;-86
2023/07/23 06:00:20;;;;;;;3.97;1.77;;;;;;;;;;5110607;27;20047;-85
2023/07/23 06:02:46;;;;;;;0.60;0.60;;;;;;;;;;5130949;27;20019;-84
2023/07/23 06:05:11;;;;;;;1.30;1.05;;;;;;;;;;5127949;27;20027;-86
2023/07/23 06:07:39;;;;;;;0.90;0.68;;;;;;;;;;5111329;27;20455;-86
2023/07/23 06:10:05;;;;;;;1.13;0.68;;;;;;;;;;5129154;27;20483;-86
2023/07/23 06:12:31;;;;;;;2.33;1.17;;;;;;;;;;5110483;27;20500;-87
2023/07/23 06:14:57;;;;;;;1.48;1.15;;;;;;;;;;5122088;27;20023;-86
2023/07/23 06:17:22;;;;;;;0.77;0.73;;;;;;;;;;5130243;27;20061;-86
2023/07/23 06:19:48;;;;;;;0.82;0.75;;;;;;;;;;5130317;27;20038;-86
2023/07/23 06:22:13;;;;;;;2.03;1.17;;;;;;;;;;5130507;27;20015;-83
2023/07/23 06:24:40;;;;;;;5.07;0.70;;;;;;;;;;5129343;27;20445;-86
2023/07/23 06:27:06;;;;;;;1.83;1.40;;;;;;;;;;5131284;27;20472;-90
2023/07/23 06:29:32;;;;;;;1.15;1.00;;;;;;;;;;5126243;28;20102;-86
2023/07/23 06:31:57;;;;;;;1.35;1.00;;;;;;;;;;5113583;28;20015;-87
2023/07/23 06:34:23;;;;;;;1.58;1.48;;;;;;;;;;5131324;28;20023;-85
2023/07/23 06:36:48;;;;;;;2.90;1.35;;;;;;;;;;5130098;28;20171;-85
2023/07/23 06:39:13;;;;;;;5.03;1.45;;;;;;;;;;5131580;28;20031;-88
2023/07/23 06:41:41;;;;;;;1.48;0.70;;;;;;;;;;5134926;27;20031;-86
2023/07/23 06:44:06;;;;;;;1.20;0.80;;;;;;;;;;5134408;27;20067;-87
2023/07/23 06:46:31;;;;;;;1.10;0.98;;;;;;;;;;5116328;27;20054;-86
2023/07/23 06:48:57;;;;;;;1.48;0.80;;;;;;;;;;5118107;27;20547;-87
2023/07/23 06:51:22;;;;;;;1.58;1.08;;;;;;;;;;5133583;27;20535;-87
2023/07/23 06:53:48;;;;;;;2.60;0.95;;;;;;;;;;5133124;27;20387;-85
2023/07/23 06:56:13;;;;;;;1.27;0.82;;;;;;;;;;5134954;27;20019;-85
2023/07/23 06:58:39;;;;;;;1.30;1.15;;;;;;;;;;5135620;27;20106;-85
2023/07/23 07:01:06;;;;;;;1.88;1.25;;;;;;;;;;5116336;27;20031;-87
2023/07/23 07:03:32;;;;;;;1.38;1.05;;;;;;;;;;5134937;27;20493;-85
2023/07/23 07:06:01;;;;;;;2.83;0.90;;;;;;;;;;5128973;27;20053;-85
2023/07/23 07:08:28;;;;;;;2.13;0.85;;;;;;;;;;5134462;27;20030;-85
2023/07/23 07:11:02;;;;;;;1.70;0.80;;;;;;;;;;5130425;27;20172;-86
2023/07/23 07:13:28;;;;;;;1.10;0.68;;;;;;;;;;5134884;27;20016;-86
2023/07/23 07:15:54;;;;;;;2.88;1.80;;;;;;;;;;5135144;27;20374;-83
2023/07/23 07:18:19;;;;;;;1.50;1.15;;;;;;;;;;5134914;27;20035;-84
2023/07/23 07:20:52;;;;;;;1.33;0.70;;;;;;;;;;5134964;27;20382;-85
2023/07/23 07:23:18;;;;;;;2.67;1.30;;;;;;;;;;5132778;27;20069;-84
2023/07/23 07:25:43;;;;;;;1.55;0.93;;;;;;;;;;5127181;27;20051;-86
2023/07/23 07:28:09;;;;;;;2.08;1.33;;;;;;;;;;5115977;27;20463;-84
2023/07/23 07:30:39;;;;;;;2.15;1.20;;;;;;;;;;5134722;27;20027;-84
2023/07/23 07:33:04;;;;;;;2.33;0.82;;;;;;;;;;5134384;27;20031;-85
2023/07/23 07:35:30;;;;;;;1.25;0.98;;;;;;;;;;5133758;27;20088;-85
2023/07/23 07:37:55;;;;;;;0.73;0.73;;;;;;;;;;5129793;27;20471;-85
2023/07/23 07:40:21;;;;;;;2.35;0.80;;;;;;;;;;5133017;27;20035;-86
2023/07/23 07:42:46;;;;;;;1.42;1.23;;;;;;;;;;5132444;27;20019;-86
2023/07/23 07:45:12;;;;;;;0.60;0.40;;;;;;;;;;5129754;27;20039;-86
2023/07/23 07:47:37;;;;;;;0.80;0.57;;;;;;;;;;5134727;27;20031;-85
2023/07/23 07:50:07;;;;;;;2.40;0.93;;;;;;;;;;5134390;27;20108;-84
2023/07/23 07:52:33;;;;;;;1.27;0.90;;;;;;;;;;5133561;27;20023;-88
2023/07/23 07:54:59;;;;;;;2.28;1.42;;;;;;;;;;5111143;27;20034;-87
2023/07/23 07:57:29;;;;;;;2.42;1.20;;;;;;;;;;5113486;27;20030;-86
2023/07/23 07:59:54;;;;;;;1.13;0.73;;;;;;;;;;5130502;27;20048;-85
2023/07/23 08:02:20;;;;;;;1.98;1.27;;;;;;;;;;5132067;27;20037;-86
2023/07/23 08:04:46;;;;;;;1.38;1.13;;;;;;;;;;5127318;27;20042;-85
2023/07/23 08:07:12;;;;;;;3.15;1.67;;;;;;;;;;5121903;27;20031;-86
2023/07/23 08:09:41;;;;;;;1.30;0.93;;;;;;;;;;5131060;27;20019;-86
2023/07/23 08:12:07;;;;;;;1.45;1.02;;;;;;;;;;5126875;27;20022;-84
2023/07/23 08:14:37;;;;;;;1.42;0.85;;;;;;;;;;5124774;27;20482;-83
2023/07/23 08:17:03;;;;;;;2.83;1.25;;;;;;;;;;5133839;27;20105;-86
2023/07/23 08:19:28;;;;;;;1.08;0.82;;;;;;;;;;5133663;27;20172;-84
2023/07/23 08:21:54;;;;;;;0.85;0.77;;;;;;;;;;5132971;27;20025;-84
2023/07/23 08:24:20;;;;;;;3.40;1.27;;;;;;;;;;5114711;27;20035;-84
2023/07/23 08:26:48;;;;;;;1.33;1.00;;;;;;;;;;5128072;27;20028;-83
2023/07/23 08:29:16;;;;;;;3.33;1.27;;;;;;;;;;5133295;27;20378;-84
2023/07/23 08:31:43;;;;;;;2.35;1.17;;;;;;;;;;5131368;27;20023;-81
2023/07/23 08:34:08;;;;;;;2.00;1.38;;;;;;;;;;5133167;27;20056;-83
2023/07/23 08:36:34;;;;;;;0.88;0.82;;;;;;;;;;5128321;27;20091;-83
2023/07/23 08:39:00;;;;;;;1.60;0.88;;;;;;;;;;5126648;27;20168;-83
2023/07/23 08:41:59;;;;;;;1.23;1.13;;;;;;;;;;5130924;27;20031;-81
2023/07/23 08:44:25;;;;;;;3.97;1.02;;;;;;;;;;5125822;27;20051;-85
2023/07/23 08:47:09;;;;;;;1.42;1.23;;;;;;;;;;5131627;27;20023;-83
2023/07/23 08:49:34;;;;;;;0.82;0.80;;;;;;;;;;5130927;27;20023;-83
2023/07/23 08:52:03;;;;;;;1.13;0.95;;;;;;;;;;5132101;27;20147;-80
2023/07/23 08:54:28;;;;;;;1.90;0.85;;;;;;;;;;5127014;27;20076;-83
2023/07/23 08:56:54;;;;;;;1.45;1.02;;;;;;;;;;5132590;27;20059;-82
2023/07/23 08:59:21;;;;;;;1.83;1.15;;;;;;;;;;5132791;27;20506;-83
2023/07/23 09:01:47;;;;;;;2.53;1.50;;;;;;;;;;5127995;27;20027;-82
2023/07/23 09:04:13;;;;;;;1.88;1.30;;;;;;;;;;5112194;27;20038;-83
2023/07/23 09:06:42;;;;;;;1.20;1.08;;;;;;;;;;5132930;27;20027;-83
2023/07/23 09:09:09;;;;;;;1.92;1.23;;;;;;;;;;5130309;27;20031;-81
2023/07/23 09:11:36;;;;;;;1.40;1.17;;;;;;;;;;5131758;27;20080;-83
2023/07/23 09:14:09;;;;;;;1.92;1.17;;;;;;;;;;5131676;27;20088;-82
2023/07/23 09:16:40;;;;;;;1.40;1.05;;;;;;;;;;5131487;27;20035;-83
2023/07/23 09:19:08;;;;;;;1.88;1.25;;;;;;;;;;5127956;27;20110;-83
2023/07/23 09:21:34;;;;;;;2.25;1.17;;;;;;;;;;5128888;27;20396;-83
2023/07/23 09:24:02;;;;;;;1.52;1.33;;;;;;;;;;5110244;27;20023;-85
2023/07/23 09:26:28;;;;;;;1.67;1.30;;;;;;;;;;5124645;27;20462;-83
2023/07/23 09:28:57;;;;;;;2.53;1.92;;;;;;;;;;5127553;27;20026;-84
2023/07/23 09:31:26;;;;;;;2.45;1.50;;;;;;;;;;5129108;27;20475;-83
2023/07/23 09:33:56;;;;;;;2.20;1.65;;;;;;;;;;5132910;27;20027;-83
2023/07/23 09:36:26;;;;;;;1.92;1.10;;;;;;;;;;5131287;27;20031;-84
2023/07/23 09:39:03;;;;;;;1.52;0.95;;;;;;;;;;5131384;27;20022;-83
2023/07/23 09:41:37;;;;;;;1.45;1.05;;;;;;;;;;5130447;27;20030;-85
2023/07/23 09:44:10;;;;;;;2.10;1.08;;;;;;;;;;5131893;27;20475;-82
2023/07/23 09:46:38;;;;;;;1.40;0.98;;;;;;;;;;5113447;27;20042;-85
2023/07/23 09:49:04;;;;;;;2.67;1.45;;;;;;;;;;5111374;27;20564;-85
2023/07/23 09:51:33;;;;;;;2.22;1.40;;;;;;;;;;5112553;27;20062;-85
2023/07/23 09:54:00;;;;;;;2.10;1.25;;;;;;;;;;5130751;27;20023;-86
2023/07/23 09:56:27;;;;;;;1.33;1.10;;;;;;;;;;5130071;27;20492;-84
2023/07/23 09:58:54;;;;;;;2.60;1.33;;;;;;;;;;5132057;27;20520;-83
2023/07/23 10:01:22;;;;;;;2.10;1.00;;;;;;;;;;5112436;27;20031;-86
2023/07/23 10:03:48;;;;;;;3.40;1.65;;;;;;;;;;5113975;27;20031;-86
2023/07/23 10:06:15;;;;;;;3.25;1.65;;;;;;;;;;5130125;27;20054;-86
2023/07/23 10:08:44;;;;;;;1.63;1.02;;;;;;;;;;5131868;27;20027;-87
2023/07/23 10:11:11;;;;;;;1.60;0.87;;;;;;;;;;5111666;27;20110;-85
2023/07/23 10:13:38;;;;;;;3.28;1.25;;;;;;;;;;5132023;27;20415;-86
2023/07/23 10:16:27;;;;;;;3.28;1.80;;;;;;;;;;5130142;27;20515;-88
2023/07/23 10:18:54;;;;;;;;;;;;;;;;;;5130790;27;20031;-85
2023/07/23 10:21:20;;;;;;;1.88;1.25;;;;;;;;;;5130803;27;19915;-86
2023/07/23 10:23:54;;;;;;;2.13;1.30;;;;;;;;;;5128197;27;20023;-86
2023/07/23 10:26:53;;;;;;;1.73;1.20;;;;;;;;;;5128565;27;20035;-86
2023/07/23 10:29:21;;;;;;;2.70;1.38;;;;;;;;;;5085197;28;20043;-87
2023/07/23 10:31:46;;;;;;;2.25;1.25;;;;;;;;;;5125916;28;20112;-85
2023/07/23 10:34:27;;;;;;;2.05;1.35;;;;;;;;;;5128775;28;20027;-84
2023/07/23 10:37:12;;;;;;;1.48;1.05;;;;;;;;;;5112830;28;20378;-86
2023/07/23 10:39:42;;;;;;;3.45;1.50;;;;;;;;;;5130386;28;20015;-87
2023/07/23 10:42:08;;;;;;;3.30;1.60;;;;;;;;;;5124234;28;20031;-85
2023/07/23 10:44:37;;;;;;;2.78;1.58;;;;;;;;;;5108392;28;20483;-84
2023/07/23 10:47:32;;;;;;;4.40;1.90;;;;;;;;;;5128159;28;20019;-87
2023/07/23 10:50:11;;;;;;;4.25;2.22;;;;;;;;;;5130933;28;20088;-85
2023/07/23 10:52:37;;;;;;;2.05;1.42;;;;;;;;;;5130274;28;20030;-86
2023/07/23 10:55:04;;;;;;;2.45;1.40;;;;;;;;;;5113271;27;20034;-85
2023/07/23 10:57:31;;;;;;;5.00;1.67;;;;;;;;;;5112788;28;20033;-86
2023/07/23 10:59:56;;;;;;;3.67;1.90;;;;;;;;;;5130501;28;20088;-86
2023/07/23 11:02:26;;;;;;;2.20;1.58;;;;;;;;;;5126926;27;20019;-86
2023/07/23 11:04:56;;;;;;;1.60;0.95;;;;;;;;;;5131928;28;20023;-86
2023/07/23 11:07:26;;;;;;;1.63;1.45;;;;;;;;;;5130742;28;20023;-86
2023/07/23 11:09:56;;;;;;;1.95;1.60;;;;;;;;;;5131542;28;20381;-87
2023/07/23 11:12:24;;;;;;;;;;;;;;;;;;5128893;28;20489;-84
2023/07/23 11:14:52;;;;;;;1.05;0.98;;;;;;;;;;5127321;28;19915;-86
2023/07/23 11:17:18;;;;;;;2.70;1.80;;;;;;;;;;5131115;28;20015;-86
2023/07/23 11:19:46;;;;;;;2.47;1.70;;;;;;;;;;5110883;28;20083;-86
2023/07/23 11:22:13;;;;;;;1.95;1.27;;;;;;;;;;5129896;28;20032;-87
2023/07/23 11:24:40;;;;;;;2.90;2.10;;;;;;;;;;5130801;28;20033;-85
2023/07/23 11:27:05;;;;;;;3.42;1.67;;;;;;;;;;5128254;27;20507;-87
2023/07/23 11:29:32;;;;;;;2.53;1.65;;;;;;;;;;5134310;27;20031;-88
2023/07/23 11:31:57;;;;;;;2.72;1.77;;;;;;;;;;5132074;27;20019;-84
2023/07/23 11:34:24;;;;;;;5.45;1.92;;;;;;;;;;5114219;27;20083;-86
2023/07/23 11:36:55;;;;;;;6.22;1.88;;;;;;;;;;5130998;27;20038;-83
2023/07/23 11:39:24;;;;;;;2.88;2.13;;;;;;;;;;5128637;27;20534;-87
2023/07/23 11:41:52;;;;;;;6.40;2.08;;;;;;;;;;5114538;27;20027;-86
2023/07/23 11:44:17;;;;;;;2.45;1.48;;;;;;;;;;5131919;27;20126;-83
2023/07/23 11:46:43;;;;;;;2.75;1.98;;;;;;;;;;5132877;27;20026;-84
2023/07/23 11:49:11;;;;;;;2.53;1.63;;;;;;;;;;5134314;27;20031;-85
2023/07/23 11:51:37;;;;;;;3.25;1.83;;;;;;;;;;5134458;27;20031;-85
2023/07/23 11:54:11;;;;;;;2.70;1.65;;;;;;;;;;5130440;27;20035;-85
2023/07/23 11:56:47;;;;;;;3.80;2.22;;;;;;;;;;5113813;27;20035;-85
2023/07/23 11:59:17;;;;;;;4.53;2.55;;;;;;;;;;5129479;27;20355;-85
2023/07/23 12:01:43;;;;;;;2.60;1.65;;;;;;;;;;5129395;27;20084;-86
2023/07/23 12:04:09;;;;;;;4.63;2.63;;;;;;;;;;5134226;27;20023;-85
2023/07/23 12:06:37;;;;;;;2.65;2.00;;;;;;;;;;5133346;27;20035;-86
2023/07/23 12:09:11;;;;;;;4.13;2.65;;;;;;;;;;5132398;27;20051;-86
2023/07/23 12:11:38;;;;;;;4.50;2.63;;;;;;;;;;5131039;27;20030;-85
2023/07/23 12:14:08;;;;;;;2.17;1.40;;;;;;;;;;5114929;27;20461;-85
2023/07/23 12:16:43;;;;;;;3.97;2.08;;;;;;;;;;5133148;27;20025;-86
2023/07/23 12:19:14;;;;;;;3.72;2.22;;;;;;;;;;5130927;27;20049;-86
2023/07/23 12:21:41;;;;;;;4.60;1.88;;;;;;;;;;5115060;27;20058;-85
2023/07/23 12:24:23;;;;;;;5.53;3.17;;;;;;;;;;5133435;27;20023;-84
2023/07/23 12:26:51;;;;;;;3.30;1.77;;;;;;;;;;5130255;27;20023;-83
2023/07/23 12:29:18;;;;;;;2.47;1.63;;;;;;;;;;5133429;27;20042;-85
2023/07/23 12:31:45;;;;;;;3.63;1.92;;;;;;;;;;5133232;27;20015;-89
2023/07/23 12:34:12;;;;;;;5.05;2.22;;;;;;;;;;5108527;27;20056;-88
2023/07/23 12:36:38;;;;;;;3.58;1.88;;;;;;;;;;5133513;27;20033;-83
2023/07/23 12:39:08;;;;;;;3.40;2.00;;;;;;;;;;5133149;27;20047;-85
2023/07/23 12:41:34;;;;;;;3.70;1.98;;;;;;;;;;5114746;27;20114;-86
2023/07/23 12:44:01;;;;;;;4.70;2.95;;;;;;;;;;5130621;27;20145;-86
2023/07/23 12:46:26;;;;;;;4.80;2.60;;;;;;;;;;5133833;27;20122;-82
2023/07/23 12:48:52;;;;;;;3.28;2.38;;;;;;;;;;5133510;27;20106;-85
2023/07/23 12:51:17;;;;;;;3.33;1.90;;;;;;;;;;5112594;27;20064;-83
2023/07/23 12:53:43;;;;;;;3.63;2.40;;;;;;;;;;5132947;27;20023;-85
2023/07/23 12:56:08;;;;;;;3.08;1.95;;;;;;;;;;5132944;27;20102;-85
2023/07/23 12:58:34;;;;;;;3.80;2.03;;;;;;;;;;5131905;27;20031;-88
2023/07/23 13:00:59;;;;;;;4.88;2.70;;;;;;;;;;5131672;27;20027;-87
2023/07/23 13:03:25;;;;;;;2.80;1.75;;;;;;;;;;5133033;27;20030;-85
2023/07/23 13:05:50;;;;;;;5.13;2.78;;;;;;;;;;5132871;27;20373;-85
2023/07/23 13:08:16;;;;;;;7.68;4.03;;;;;;;;;;5132740;27;20015;-86
2023/07/23 13:10:41;;;;;;;5.40;2.72;;;;;;;;;;5132481;27;20390;-89
2023/07/23 13:13:06;;;;;;;4.00;2.42;;;;;;;;;;5112212;27;20072;-84
2023/07/23 13:15:32;;;;;;;4.07;2.15;;;;;;;;;;5126944;27;20034;-86
2023/07/23 13:17:58;;;;;;;6.22;2.88;;;;;;;;;;5109431;27;20027;-86
2023/07/23 13:20:23;;;;;;;3.95;2.40;;;;;;;;;;5112999;27;20459;-84
2023/07/23 13:22:48;;;;;;;4.53;2.33;;;;;;;;;;5113086;27;20111;-89
2023/07/23 13:25:14;;;;;;;4.93;2.50;;;;;;;;;;5132126;27;21315;-86
2023/07/23 13:28:03;;;;;;;4.25;2.45;;;;;;;;;;5110977;27;20432;-87
2023/07/23 13:30:29;;;;;;;3.15;2.20;;;;;;;;;;5111714;27;20027;-86
2023/07/23 13:32:54;;;;;;;5.07;2.38;;;;;;;;;;5129857;27;20068;-85
2023/07/23 13:35:20;;;;;;;3.03;1.92;;;;;;;;;;5130213;27;20045;-91
2023/07/23 13:37:45;;;;;;;4.40;2.13;;;;;;;;;;5110087;27;20019;-87
2023/07/23 13:40:11;;;;;;;4.25;2.47;;;;;;;;;;5131444;27;20234;-86
2023/07/23 13:42:36;;;;;;;2.92;1.73;;;;;;;;;;5107874;27;20054;-87
2023/07/23 13:45:02;;;;;;;5.90;2.63;;;;;;;;;;5110323;27;20499;-88
2023/07/23 13:47:28;;;;;;;4.78;2.40;;;;;;;;;;5130738;27;20030;-85
2023/07/23 13:49:53;;;;;;;3.47;2.22;;;;;;;;;;5130539;27;20101;-88
2023/07/23 13:52:23;;;;;;;5.28;2.63;;;;;;;;;;5131922;27;20055;-86
2023/07/23 13:54:49;;;;;;;4.55;2.38;;;;;;;;;;5110470;27;20031;-90
2023/07/23 13:57:14;;;;;;;4.68;2.17;;;;;;;;;;5131915;27;20031;-85
2023/07/23 13:59:40;;;;;;;3.97;1.98;;;;;;;;;;5111725;27;20067;-89
2023/07/23 14:02:06;;;;;;;3.22;1.98;;;;;;;;;;5113754;27;20031;-87
2023/07/23 14:04:31;;;;;;;4.10;2.38;;;;;;;;;;5130366;27;20034;-88
2023/07/23 14:06:56;;;;;;;4.18;2.50;;;;;;;;;;5131862;27;20037;-86
2023/07/23 14:09:22;;;;;;;3.88;1.70;;;;;;;;;;5112557;27;20085;-85
2023/07/23 14:11:47;;;;;;;4.13;2.13;;;;;;;;;;5122903;27;20492;-86
2023/07/23 14:14:13;;;;;;;4.47;1.90;;;;;;;;;;5113409;27;20023;-87
2023/07/23 14:16:38;;;;;;;6.30;2.38;;;;;;;;;;5132655;27;20110;-87
2023/07/23 14:19:04;;;;;;;4.28;2.40;;;;;;;;;;5124809;27;20027;-85
2023/07/23 14:21:29;;;;;;;4.60;2.17;;;;;;;;;;5126823;27;20018;-86
2023/07/23 14:23:55;;;;;;;3.35;1.90;;;;;;;;;;5131501;27;20420;-88
2023/07/23 14:26:21;;;;;;;5.18;2.30;;;;;;;;;;5132033;27;20034;-87
2023/07/23 14:28:46;;;;;;;3.03;1.67;;;;;;;;;;5131016;27;20425;-86
2023/07/23 14:31:11;;;;;;;2.63;1.70;;;;;;;;;;5130774;27;20060;-87
2023/07/23 14:33:37;;;;;;;4.32;2.55;;;;;;;;;;5110054;28;20474;-88
2023/07/23 14:36:04;;;;;;;1.38;0.77;;;;;;;;;;5130218;28;20420;-86
2023/07/23 14:38:30;;;;;;;3.55;2.13;;;;;;;;;;5130282;28;20059;-87
2023/07/23 14:40:55;;;;;;;1.33;1.17;;;;;;;;;;5130382;27;20035;-90